sensor_id;sensor_type;location;lat;lon;timestamp;P1;durP1;ratioP1;P2;durP2;ratioP2
14066;SDS011;7108;42.684;23.350;2022-08-21T00:01:15;246.10;;;132.93;;
14066;SDS011;7108;42.684;23.350;2022-08-21T00:03:43;253.80;;;135.83;;
14066;SDS011;7108;42.684;23.350;2022-08-21T00:06:09;235.60;;;124.97;;
14066;SDS011;7108;42.684;23.350;2022-08-21T00:08:35;242.27;;;127.10;;
14066;SDS011;7108;42.684;23.350;2022-08-21T00:11:01;236.73;;;126.77;;
14066;SDS011;7108;42.684;23.350;2022-08-21T00:13:27;225.73;;;129.60;;
14066;SDS011;7108;42.684;23.350;2022-08-21T00:15:52;252.23;;;129.07;;
14066;SDS011;7108;42.684;23.350;2022-08-21T00:18:18;243.60;;;123.63;;
14066;SDS011;7108;42.684;23.350;2022-08-21T00:20:44;253.30;;;130.77;;
14066;SDS011;7108;42.684;23.350;2022-08-21T00:23:11;243.67;;;128.93;;
14066;SDS011;7108;42.684;23.350;2022-08-21T00:25:37;245.23;;;126.37;;
14066;SDS011;7108;42.684;23.350;2022-08-21T00:28:03;236.40;;;127.10;;
14066;SDS011;7108;42.684;23.350;2022-08-21T00:30:32;244.77;;;125.07;;
14066;SDS011;7108;42.684;23.350;2022-08-21T00:32:58;224.10;;;123.40;;
14066;SDS011;7108;42.684;23.350;2022-08-21T00:35:28;230.43;;;124.80;;
14066;SDS011;7108;42.684;23.350;2022-08-21T00:37:56;244.27;;;122.77;;
14066;SDS011;7108;42.684;23.350;2022-08-21T00:40:25;257.80;;;124.23;;
14066;SDS011;7108;42.684;23.350;2022-08-21T00:42:54;257.60;;;124.80;;
14066;SDS011;7108;42.684;23.350;2022-08-21T00:45:21;246.37;;;124.40;;
14066;SDS011;7108;42.684;23.350;2022-08-21T00:47:47;243.43;;;121.50;;
14066;SDS011;7108;42.684;23.350;2022-08-21T00:50:13;239.87;;;125.03;;
14066;SDS011;7108;42.684;23.350;2022-08-21T00:52:38;240.13;;;123.10;;
14066;SDS011;7108;42.684;23.350;2022-08-21T00:55:06;234.23;;;127.20;;
14066;SDS011;7108;42.684;23.350;2022-08-21T00:57:54;226.77;;;123.97;;
14066;SDS011;7108;42.684;23.350;2022-08-21T01:00:27;252.23;;;133.37;;
14066;SDS011;7108;42.684;23.350;2022-08-21T01:02:57;252.43;;;131.97;;
14066;SDS011;7108;42.684;23.350;2022-08-21T01:05:24;264.30;;;134.53;;
14066;SDS011;7108;42.684;23.350;2022-08-21T01:07:50;245.40;;;130.40;;
14066;SDS011;7108;42.684;23.350;2022-08-21T01:10:16;249.10;;;128.53;;
14066;SDS011;7108;42.684;23.350;2022-08-21T01:12:43;239.50;;;130.20;;
14066;SDS011;7108;42.684;23.350;2022-08-21T01:15:09;231.57;;;128.40;;
14066;SDS011;7108;42.684;23.350;2022-08-21T01:17:39;237.07;;;129.57;;
14066;SDS011;7108;42.684;23.350;2022-08-21T01:20:06;235.00;;;125.33;;
14066;SDS011;7108;42.684;23.350;2022-08-21T01:22:34;238.33;;;126.73;;
14066;SDS011;7108;42.684;23.350;2022-08-21T01:24:59;252.47;;;125.83;;
14066;SDS011;7108;42.684;23.350;2022-08-21T01:27:25;268.40;;;135.73;;
14066;SDS011;7108;42.684;23.350;2022-08-21T01:32:32;250.40;;;128.27;;
14066;SDS011;7108;42.684;23.350;2022-08-21T01:34:58;264.60;;;129.87;;
14066;SDS011;7108;42.684;23.350;2022-08-21T01:37:24;245.70;;;130.47;;
14066;SDS011;7108;42.684;23.350;2022-08-21T01:39:49;254.80;;;131.90;;
14066;SDS011;7108;42.684;23.350;2022-08-21T01:42:15;242.33;;;129.63;;
14066;SDS011;7108;42.684;23.350;2022-08-21T01:44:41;247.50;;;128.50;;
14066;SDS011;7108;42.684;23.350;2022-08-21T01:47:08;233.67;;;121.83;;
14066;SDS011;7108;42.684;23.350;2022-08-21T01:49:35;236.03;;;125.13;;
14066;SDS011;7108;42.684;23.350;2022-08-21T01:52:02;251.37;;;128.10;;
14066;SDS011;7108;42.684;23.350;2022-08-21T01:54:28;261.20;;;133.77;;
14066;SDS011;7108;42.684;23.350;2022-08-21T01:56:55;250.30;;;129.27;;
14066;SDS011;7108;42.684;23.350;2022-08-21T01:59:21;257.43;;;129.50;;
14066;SDS011;7108;42.684;23.350;2022-08-21T02:01:47;244.60;;;127.20;;
14066;SDS011;7108;42.684;23.350;2022-08-21T02:04:13;235.20;;;120.83;;
14066;SDS011;7108;42.684;23.350;2022-08-21T02:06:39;237.57;;;124.13;;
14066;SDS011;7108;42.684;23.350;2022-08-21T02:09:05;237.40;;;125.43;;
14066;SDS011;7108;42.684;23.350;2022-08-21T02:11:33;233.00;;;129.47;;
14066;SDS011;7108;42.684;23.350;2022-08-21T02:13:59;250.60;;;124.87;;
14066;SDS011;7108;42.684;23.350;2022-08-21T02:16:25;238.80;;;124.27;;
14066;SDS011;7108;42.684;23.350;2022-08-21T02:18:50;273.13;;;137.87;;
14066;SDS011;7108;42.684;23.350;2022-08-21T02:21:16;243.20;;;136.07;;
14066;SDS011;7108;42.684;23.350;2022-08-21T02:23:41;262.23;;;130.03;;
14066;SDS011;7108;42.684;23.350;2022-08-21T02:26:07;255.70;;;135.07;;
14066;SDS011;7108;42.684;23.350;2022-08-21T02:28:34;269.27;;;135.90;;
14066;SDS011;7108;42.684;23.350;2022-08-21T02:31:00;263.83;;;136.73;;
14066;SDS011;7108;42.684;23.350;2022-08-21T02:33:27;255.57;;;140.07;;
14066;SDS011;7108;42.684;23.350;2022-08-21T02:35:53;275.27;;;132.67;;
14066;SDS011;7108;42.684;23.350;2022-08-21T02:38:21;250.67;;;132.10;;
14066;SDS011;7108;42.684;23.350;2022-08-21T02:40:49;257.30;;;134.20;;
14066;SDS011;7108;42.684;23.350;2022-08-21T02:43:16;258.23;;;131.43;;
14066;SDS011;7108;42.684;23.350;2022-08-21T02:45:43;248.17;;;135.70;;
14066;SDS011;7108;42.684;23.350;2022-08-21T02:48:11;242.63;;;131.97;;
14066;SDS011;7108;42.684;23.350;2022-08-21T02:50:40;269.40;;;135.33;;
14066;SDS011;7108;42.684;23.350;2022-08-21T02:53:09;241.23;;;129.30;;
14066;SDS011;7108;42.684;23.350;2022-08-21T02:55:36;254.67;;;127.77;;
14066;SDS011;7108;42.684;23.350;2022-08-21T02:58:03;261.87;;;136.13;;
14066;SDS011;7108;42.684;23.350;2022-08-21T03:00:31;281.27;;;137.17;;
14066;SDS011;7108;42.684;23.350;2022-08-21T03:02:58;262.03;;;135.23;;
14066;SDS011;7108;42.684;23.350;2022-08-21T03:05:25;267.23;;;135.03;;
14066;SDS011;7108;42.684;23.350;2022-08-21T03:07:53;262.03;;;135.17;;
14066;SDS011;7108;42.684;23.350;2022-08-21T03:10:19;235.53;;;131.07;;
14066;SDS011;7108;42.684;23.350;2022-08-21T03:12:47;236.23;;;133.50;;
14066;SDS011;7108;42.684;23.350;2022-08-21T03:15:14;244.20;;;134.10;;
14066;SDS011;7108;42.684;23.350;2022-08-21T03:17:42;249.10;;;130.43;;
14066;SDS011;7108;42.684;23.350;2022-08-21T03:20:08;250.90;;;128.30;;
14066;SDS011;7108;42.684;23.350;2022-08-21T03:22:34;268.37;;;139.50;;
14066;SDS011;7108;42.684;23.350;2022-08-21T03:25:00;260.40;;;132.43;;
14066;SDS011;7108;42.684;23.350;2022-08-21T03:27:27;263.17;;;137.10;;
14066;SDS011;7108;42.684;23.350;2022-08-21T03:29:54;252.07;;;133.27;;
14066;SDS011;7108;42.684;23.350;2022-08-21T03:32:20;237.30;;;126.37;;
14066;SDS011;7108;42.684;23.350;2022-08-21T03:34:46;251.07;;;126.97;;
14066;SDS011;7108;42.684;23.350;2022-08-21T03:37:12;235.37;;;123.83;;
14066;SDS011;7108;42.684;23.350;2022-08-21T03:39:38;250.87;;;127.17;;
14066;SDS011;7108;42.684;23.350;2022-08-21T03:42:04;247.93;;;127.60;;
14066;SDS011;7108;42.684;23.350;2022-08-21T03:44:31;266.63;;;128.57;;
14066;SDS011;7108;42.684;23.350;2022-08-21T03:46:57;235.63;;;128.10;;
14066;SDS011;7108;42.684;23.350;2022-08-21T03:49:23;240.03;;;129.90;;
14066;SDS011;7108;42.684;23.350;2022-08-21T03:51:49;243.10;;;130.47;;
14066;SDS011;7108;42.684;23.350;2022-08-21T03:54:15;245.93;;;123.73;;
14066;SDS011;7108;42.684;23.350;2022-08-21T03:56:41;291.13;;;134.43;;
14066;SDS011;7108;42.684;23.350;2022-08-21T03:59:06;278.83;;;136.97;;
14066;SDS011;7108;42.684;23.350;2022-08-21T04:01:32;249.47;;;128.93;;
14066;SDS011;7108;42.684;23.350;2022-08-21T04:03:58;253.13;;;124.73;;
14066;SDS011;7108;42.684;23.350;2022-08-21T04:06:24;224.00;;;122.80;;
14066;SDS011;7108;42.684;23.350;2022-08-21T04:08:51;233.03;;;121.40;;
14066;SDS011;7108;42.684;23.350;2022-08-21T04:11:17;229.63;;;118.70;;
14066;SDS011;7108;42.684;23.350;2022-08-21T04:13:43;220.00;;;117.43;;
14066;SDS011;7108;42.684;23.350;2022-08-21T04:16:08;240.10;;;120.13;;
14066;SDS011;7108;42.684;23.350;2022-08-21T04:18:34;248.97;;;126.30;;
14066;SDS011;7108;42.684;23.350;2022-08-21T04:21:00;257.43;;;128.23;;
14066;SDS011;7108;42.684;23.350;2022-08-21T04:23:27;237.40;;;123.30;;
14066;SDS011;7108;42.684;23.350;2022-08-21T04:25:53;228.73;;;124.30;;
14066;SDS011;7108;42.684;23.350;2022-08-21T04:28:20;233.57;;;123.83;;
14066;SDS011;7108;42.684;23.350;2022-08-21T04:30:46;231.67;;;126.97;;
14066;SDS011;7108;42.684;23.350;2022-08-21T04:33:12;237.07;;;125.60;;
14066;SDS011;7108;42.684;23.350;2022-08-21T04:35:37;233.97;;;125.77;;
14066;SDS011;7108;42.684;23.350;2022-08-21T04:38:03;245.77;;;128.13;;
14066;SDS011;7108;42.684;23.350;2022-08-21T04:40:28;246.70;;;128.63;;
14066;SDS011;7108;42.684;23.350;2022-08-21T04:42:55;230.87;;;127.23;;
14066;SDS011;7108;42.684;23.350;2022-08-21T04:45:25;223.67;;;125.17;;
14066;SDS011;7108;42.684;23.350;2022-08-21T04:47:55;240.43;;;124.27;;
14066;SDS011;7108;42.684;23.350;2022-08-21T04:50:24;242.43;;;126.17;;
14066;SDS011;7108;42.684;23.350;2022-08-21T04:52:55;241.93;;;123.27;;
14066;SDS011;7108;42.684;23.350;2022-08-21T04:55:21;250.17;;;125.30;;
14066;SDS011;7108;42.684;23.350;2022-08-21T04:57:48;235.83;;;122.73;;
14066;SDS011;7108;42.684;23.350;2022-08-21T05:00:15;237.67;;;121.17;;
14066;SDS011;7108;42.684;23.350;2022-08-21T05:02:43;256.07;;;132.10;;
14066;SDS011;7108;42.684;23.350;2022-08-21T05:05:09;244.67;;;126.90;;
14066;SDS011;7108;42.684;23.350;2022-08-21T05:07:35;256.17;;;128.27;;
14066;SDS011;7108;42.684;23.350;2022-08-21T05:10:01;249.83;;;126.07;;
14066;SDS011;7108;42.684;23.350;2022-08-21T05:12:28;254.27;;;124.83;;
14066;SDS011;7108;42.684;23.350;2022-08-21T05:14:55;239.40;;;123.23;;
14066;SDS011;7108;42.684;23.350;2022-08-21T05:17:21;230.00;;;116.70;;
14066;SDS011;7108;42.684;23.350;2022-08-21T05:19:46;247.23;;;121.17;;
14066;SDS011;7108;42.684;23.350;2022-08-21T05:22:18;255.07;;;127.60;;
14066;SDS011;7108;42.684;23.350;2022-08-21T05:24:44;249.47;;;128.20;;
14066;SDS011;7108;42.684;23.350;2022-08-21T05:27:10;242.87;;;128.00;;
14066;SDS011;7108;42.684;23.350;2022-08-21T05:29:35;249.77;;;123.70;;
14066;SDS011;7108;42.684;23.350;2022-08-21T05:32:01;236.53;;;121.80;;
14066;SDS011;7108;42.684;23.350;2022-08-21T05:34:32;248.03;;;124.43;;
14066;SDS011;7108;42.684;23.350;2022-08-21T05:36:58;242.80;;;124.07;;
14066;SDS011;7108;42.684;23.350;2022-08-21T05:39:23;240.90;;;120.77;;
14066;SDS011;7108;42.684;23.350;2022-08-21T05:41:49;245.73;;;120.47;;
14066;SDS011;7108;42.684;23.350;2022-08-21T05:44:14;239.60;;;123.07;;
14066;SDS011;7108;42.684;23.350;2022-08-21T05:46:40;259.23;;;124.10;;
14066;SDS011;7108;42.684;23.350;2022-08-21T05:49:05;229.77;;;115.83;;
14066;SDS011;7108;42.684;23.350;2022-08-21T05:51:31;237.07;;;117.00;;
14066;SDS011;7108;42.684;23.350;2022-08-21T05:53:56;244.40;;;115.30;;
14066;SDS011;7108;42.684;23.350;2022-08-21T05:56:22;223.60;;;114.60;;
14066;SDS011;7108;42.684;23.350;2022-08-21T05:58:47;278.10;;;124.50;;
14066;SDS011;7108;42.684;23.350;2022-08-21T06:01:12;241.50;;;120.30;;
14066;SDS011;7108;42.684;23.350;2022-08-21T06:03:40;243.93;;;116.03;;
14066;SDS011;7108;42.684;23.350;2022-08-21T06:06:06;241.70;;;118.70;;
14066;SDS011;7108;42.684;23.350;2022-08-21T06:08:32;231.43;;;114.37;;
14066;SDS011;7108;42.684;23.350;2022-08-21T06:10:59;224.63;;;113.60;;
14066;SDS011;7108;42.684;23.350;2022-08-21T06:13:26;232.00;;;116.03;;
14066;SDS011;7108;42.684;23.350;2022-08-21T06:16:02;231.70;;;114.07;;
14066;SDS011;7108;42.684;23.350;2022-08-21T06:18:33;238.23;;;118.77;;
14066;SDS011;7108;42.684;23.350;2022-08-21T06:21:00;232.67;;;119.90;;
14066;SDS011;7108;42.684;23.350;2022-08-21T06:23:25;245.87;;;122.37;;
14066;SDS011;7108;42.684;23.350;2022-08-21T06:25:51;251.97;;;121.30;;
14066;SDS011;7108;42.684;23.350;2022-08-21T06:28:16;241.87;;;117.33;;
14066;SDS011;7108;42.684;23.350;2022-08-21T06:30:42;249.03;;;121.47;;
14066;SDS011;7108;42.684;23.350;2022-08-21T06:33:07;236.53;;;117.27;;
14066;SDS011;7108;42.684;23.350;2022-08-21T06:35:33;223.67;;;115.17;;
14066;SDS011;7108;42.684;23.350;2022-08-21T06:37:59;232.23;;;113.43;;
14066;SDS011;7108;42.684;23.350;2022-08-21T06:40:27;228.87;;;116.00;;
14066;SDS011;7108;42.684;23.350;2022-08-21T06:42:53;251.20;;;117.20;;
14066;SDS011;7108;42.684;23.350;2022-08-21T06:45:19;241.00;;;114.30;;
14066;SDS011;7108;42.684;23.350;2022-08-21T06:47:45;244.00;;;118.23;;
14066;SDS011;7108;42.684;23.350;2022-08-21T06:50:10;253.00;;;119.80;;
14066;SDS011;7108;42.684;23.350;2022-08-21T06:52:36;233.90;;;113.73;;
14066;SDS011;7108;42.684;23.350;2022-08-21T06:55:04;227.90;;;115.93;;
14066;SDS011;7108;42.684;23.350;2022-08-21T06:57:31;230.47;;;116.87;;
14066;SDS011;7108;42.684;23.350;2022-08-21T06:59:57;224.07;;;119.17;;
14066;SDS011;7108;42.684;23.350;2022-08-21T07:02:22;227.87;;;116.63;;
14066;SDS011;7108;42.684;23.350;2022-08-21T07:04:48;231.93;;;115.27;;
14066;SDS011;7108;42.684;23.350;2022-08-21T07:07:13;240.93;;;114.50;;
14066;SDS011;7108;42.684;23.350;2022-08-21T07:09:39;229.30;;;112.77;;
14066;SDS011;7108;42.684;23.350;2022-08-21T07:12:04;226.30;;;111.63;;
14066;SDS011;7108;42.684;23.350;2022-08-21T07:14:30;236.97;;;112.90;;
14066;SDS011;7108;42.684;23.350;2022-08-21T07:16:56;251.87;;;114.83;;
14066;SDS011;7108;42.684;23.350;2022-08-21T07:19:21;256.10;;;116.80;;
14066;SDS011;7108;42.684;23.350;2022-08-21T07:21:47;241.13;;;114.27;;
14066;SDS011;7108;42.684;23.350;2022-08-21T07:24:13;234.60;;;114.53;;
14066;SDS011;7108;42.684;23.350;2022-08-21T07:26:39;229.80;;;113.00;;
14066;SDS011;7108;42.684;23.350;2022-08-21T07:29:05;236.03;;;115.70;;
14066;SDS011;7108;42.684;23.350;2022-08-21T07:31:30;228.93;;;114.57;;
14066;SDS011;7108;42.684;23.350;2022-08-21T07:33:56;246.97;;;113.83;;
14066;SDS011;7108;42.684;23.350;2022-08-21T07:36:21;248.40;;;113.83;;
14066;SDS011;7108;42.684;23.350;2022-08-21T07:38:47;252.50;;;113.17;;
14066;SDS011;7108;42.684;23.350;2022-08-21T07:41:17;251.37;;;116.57;;
14066;SDS011;7108;42.684;23.350;2022-08-21T07:43:45;291.77;;;125.33;;
14066;SDS011;7108;42.684;23.350;2022-08-21T07:46:11;259.67;;;121.10;;
14066;SDS011;7108;42.684;23.350;2022-08-21T07:48:37;277.30;;;124.23;;
14066;SDS011;7108;42.684;23.350;2022-08-21T07:51:06;277.43;;;121.30;;
14066;SDS011;7108;42.684;23.350;2022-08-21T07:53:34;280.53;;;123.57;;
14066;SDS011;7108;42.684;23.350;2022-08-21T07:56:00;273.23;;;124.10;;
14066;SDS011;7108;42.684;23.350;2022-08-21T07:58:26;273.70;;;123.73;;
14066;SDS011;7108;42.684;23.350;2022-08-21T08:00:54;298.03;;;126.70;;
14066;SDS011;7108;42.684;23.350;2022-08-21T08:03:19;291.87;;;127.37;;
14066;SDS011;7108;42.684;23.350;2022-08-21T08:05:45;283.10;;;123.73;;
14066;SDS011;7108;42.684;23.350;2022-08-21T08:08:11;256.37;;;116.27;;
14066;SDS011;7108;42.684;23.350;2022-08-21T08:10:37;269.90;;;117.10;;
14066;SDS011;7108;42.684;23.350;2022-08-21T08:13:03;275.10;;;121.33;;
14066;SDS011;7108;42.684;23.350;2022-08-21T08:15:29;260.70;;;118.97;;
14066;SDS011;7108;42.684;23.350;2022-08-21T08:17:54;282.83;;;122.80;;
14066;SDS011;7108;42.684;23.350;2022-08-21T08:20:21;277.63;;;124.83;;
14066;SDS011;7108;42.684;23.350;2022-08-21T08:22:48;291.63;;;125.77;;
14066;SDS011;7108;42.684;23.350;2022-08-21T08:25:14;280.30;;;123.10;;
14066;SDS011;7108;42.684;23.350;2022-08-21T08:27:41;276.43;;;118.60;;
14066;SDS011;7108;42.684;23.350;2022-08-21T08:30:07;260.03;;;116.43;;
14066;SDS011;7108;42.684;23.350;2022-08-21T08:32:35;252.43;;;118.40;;
14066;SDS011;7108;42.684;23.350;2022-08-21T08:35:01;282.33;;;121.17;;
14066;SDS011;7108;42.684;23.350;2022-08-21T08:37:28;285.70;;;123.73;;
14066;SDS011;7108;42.684;23.350;2022-08-21T08:39:54;263.30;;;120.83;;
14066;SDS011;7108;42.684;23.350;2022-08-21T08:45:12;277.50;;;125.33;;
14066;SDS011;7108;42.684;23.350;2022-08-21T08:47:46;220.47;;;111.53;;
14066;SDS011;7108;42.684;23.350;2022-08-21T08:50:19;236.13;;;112.37;;
14066;SDS011;7108;42.684;23.350;2022-08-21T08:52:57;239.70;;;113.80;;
14066;SDS011;7108;42.684;23.350;2022-08-21T08:55:32;248.33;;;118.93;;
14066;SDS011;7108;42.684;23.350;2022-08-21T08:58:01;261.90;;;120.53;;
14066;SDS011;7108;42.684;23.350;2022-08-21T09:00:28;243.33;;;123.50;;
14066;SDS011;7108;42.684;23.350;2022-08-21T09:02:55;241.37;;;116.70;;
14066;SDS011;7108;42.684;23.350;2022-08-21T09:26:15;225.00;;;114.40;;
14066;SDS011;7108;42.684;23.350;2022-08-21T09:28:44;230.40;;;112.17;;
14066;SDS011;7108;42.684;23.350;2022-08-21T09:34:05;243.47;;;114.93;;
14066;SDS011;7108;42.684;23.350;2022-08-21T09:36:46;251.57;;;116.83;;
14066;SDS011;7108;42.684;23.350;2022-08-21T09:39:22;225.00;;;116.83;;
14066;SDS011;7108;42.684;23.350;2022-08-21T09:42:07;248.30;;;118.17;;
14066;SDS011;7108;42.684;23.350;2022-08-21T09:44:35;241.13;;;116.00;;
14066;SDS011;7108;42.684;23.350;2022-08-21T09:47:08;231.90;;;117.03;;
14066;SDS011;7108;42.684;23.350;2022-08-21T09:49:37;245.00;;;114.93;;
14066;SDS011;7108;42.684;23.350;2022-08-21T09:52:06;237.73;;;118.47;;
14066;SDS011;7108;42.684;23.350;2022-08-21T09:54:46;241.80;;;116.83;;
14066;SDS011;7108;42.684;23.350;2022-08-21T09:57:26;237.10;;;114.33;;
14066;SDS011;7108;42.684;23.350;2022-08-21T10:00:19;248.67;;;116.83;;
14066;SDS011;7108;42.684;23.350;2022-08-21T10:02:51;233.40;;;120.77;;
14066;SDS011;7108;42.684;23.350;2022-08-21T10:05:18;230.90;;;113.60;;
14066;SDS011;7108;42.684;23.350;2022-08-21T10:07:49;223.70;;;114.50;;
14066;SDS011;7108;42.684;23.350;2022-08-21T10:16:40;237.70;;;116.17;;
14066;SDS011;7108;42.684;23.350;2022-08-21T10:21:26;239.83;;;118.03;;
14066;SDS011;7108;42.684;23.350;2022-08-21T10:30:07;243.47;;;115.30;;
14066;SDS011;7108;42.684;23.350;2022-08-21T10:35:43;254.07;;;118.80;;
14066;SDS011;7108;42.684;23.350;2022-08-21T10:41:34;236.77;;;117.00;;
14066;SDS011;7108;42.684;23.350;2022-08-21T10:47:23;235.00;;;120.30;;
14066;SDS011;7108;42.684;23.350;2022-08-21T10:52:53;249.83;;;124.27;;
14066;SDS011;7108;42.684;23.350;2022-08-21T10:55:35;240.37;;;120.80;;
14066;SDS011;7108;42.684;23.350;2022-08-21T10:58:10;258.30;;;121.23;;
14066;SDS011;7108;42.684;23.350;2022-08-21T11:00:47;247.43;;;121.83;;
14066;SDS011;7108;42.684;23.350;2022-08-21T11:06:15;239.57;;;124.00;;
14066;SDS011;7108;42.684;23.350;2022-08-21T11:08:43;257.80;;;124.63;;
14066;SDS011;7108;42.684;23.350;2022-08-21T11:13:47;225.10;;;123.63;;
14066;SDS011;7108;42.684;23.350;2022-08-21T11:16:25;244.60;;;126.23;;
14066;SDS011;7108;42.684;23.350;2022-08-21T11:29:52;243.87;;;130.20;;
14066;SDS011;7108;42.684;23.350;2022-08-21T11:35:14;256.47;;;132.93;;
14066;SDS011;7108;42.684;23.350;2022-08-21T11:43:18;243.47;;;133.17;;
14066;SDS011;7108;42.684;23.350;2022-08-21T11:48:51;233.63;;;129.77;;
14066;SDS011;7108;42.684;23.350;2022-08-21T11:57:13;250.90;;;131.67;;
14066;SDS011;7108;42.684;23.350;2022-08-21T12:02:15;246.40;;;129.87;;
14066;SDS011;7108;42.684;23.350;2022-08-21T12:04:46;246.73;;;127.77;;
14066;SDS011;7108;42.684;23.350;2022-08-21T12:07:27;243.93;;;126.63;;
14066;SDS011;7108;42.684;23.350;2022-08-21T12:09:58;234.47;;;126.83;;
14066;SDS011;7108;42.684;23.350;2022-08-21T12:12:29;241.20;;;127.40;;
14066;SDS011;7108;42.684;23.350;2022-08-21T12:17:41;248.63;;;127.13;;
14066;SDS011;7108;42.684;23.350;2022-08-21T12:22:54;246.70;;;126.70;;
14066;SDS011;7108;42.684;23.350;2022-08-21T12:25:35;237.47;;;125.67;;
14066;SDS011;7108;42.684;23.350;2022-08-21T12:28:06;239.43;;;125.53;;
14066;SDS011;7108;42.684;23.350;2022-08-21T12:30:36;253.80;;;129.20;;
14066;SDS011;7108;42.684;23.350;2022-08-21T12:41:37;231.47;;;123.23;;
14066;SDS011;7108;42.684;23.350;2022-08-21T12:44:15;259.37;;;125.97;;
14066;SDS011;7108;42.684;23.350;2022-08-21T12:47:00;241.20;;;123.30;;
14066;SDS011;7108;42.684;23.350;2022-08-21T12:52:16;231.57;;;122.90;;
14066;SDS011;7108;42.684;23.350;2022-08-21T12:54:46;254.17;;;125.73;;
14066;SDS011;7108;42.684;23.350;2022-08-21T12:57:19;249.13;;;127.70;;
14066;SDS011;7108;42.684;23.350;2022-08-21T12:59:51;238.73;;;122.90;;
14066;SDS011;7108;42.684;23.350;2022-08-21T13:02:21;255.63;;;126.37;;
14066;SDS011;7108;42.684;23.350;2022-08-21T13:04:50;295.10;;;132.57;;
14066;SDS011;7108;42.684;23.350;2022-08-21T13:07:25;294.43;;;133.67;;
14066;SDS011;7108;42.684;23.350;2022-08-21T13:09:57;277.80;;;130.07;;
14066;SDS011;7108;42.684;23.350;2022-08-21T13:12:26;264.20;;;129.40;;
14066;SDS011;7108;42.684;23.350;2022-08-21T13:14:58;258.30;;;127.33;;
14066;SDS011;7108;42.684;23.350;2022-08-21T13:17:26;270.33;;;127.73;;
14066;SDS011;7108;42.684;23.350;2022-08-21T13:19:56;283.00;;;131.20;;
14066;SDS011;7108;42.684;23.350;2022-08-21T13:22:24;276.10;;;129.30;;
14066;SDS011;7108;42.684;23.350;2022-08-21T13:24:51;296.50;;;131.87;;
14066;SDS011;7108;42.684;23.350;2022-08-21T13:27:27;299.87;;;136.73;;
14066;SDS011;7108;42.684;23.350;2022-08-21T13:30:17;262.07;;;128.37;;
14066;SDS011;7108;42.684;23.350;2022-08-21T13:32:45;287.90;;;128.57;;
14066;SDS011;7108;42.684;23.350;2022-08-21T13:35:22;266.67;;;126.00;;
14066;SDS011;7108;42.684;23.350;2022-08-21T13:37:52;280.50;;;129.87;;
14066;SDS011;7108;42.684;23.350;2022-08-21T13:40:20;288.97;;;132.90;;
14066;SDS011;7108;42.684;23.350;2022-08-21T13:42:54;274.17;;;128.67;;
14066;SDS011;7108;42.684;23.350;2022-08-21T13:45:25;279.13;;;128.07;;
14066;SDS011;7108;42.684;23.350;2022-08-21T13:47:52;273.23;;;128.97;;
14066;SDS011;7108;42.684;23.350;2022-08-21T13:50:19;286.27;;;127.73;;
14066;SDS011;7108;42.684;23.350;2022-08-21T13:53:20;297.83;;;130.77;;
14066;SDS011;7108;42.684;23.350;2022-08-21T13:55:45;289.40;;;126.00;;
14066;SDS011;7108;42.684;23.350;2022-08-21T13:58:11;282.37;;;128.17;;
14066;SDS011;7108;42.684;23.350;2022-08-21T14:00:47;272.97;;;125.67;;
14066;SDS011;7108;42.684;23.350;2022-08-21T14:03:34;287.23;;;128.03;;
14066;SDS011;7108;42.684;23.350;2022-08-21T14:06:39;289.57;;;127.20;;
14066;SDS011;7108;42.684;23.350;2022-08-21T14:09:03;266.43;;;125.80;;
14066;SDS011;7108;42.684;23.350;2022-08-21T14:11:35;259.73;;;124.20;;
14066;SDS011;7108;42.684;23.350;2022-08-21T14:14:03;276.87;;;129.07;;
14066;SDS011;7108;42.684;23.350;2022-08-21T14:16:43;268.87;;;128.00;;
14066;SDS011;7108;42.684;23.350;2022-08-21T14:19:11;263.20;;;124.13;;
14066;SDS011;7108;42.684;23.350;2022-08-21T14:21:44;252.73;;;123.57;;
14066;SDS011;7108;42.684;23.350;2022-08-21T14:26:45;290.87;;;130.20;;
14066;SDS011;7108;42.684;23.350;2022-08-21T14:29:15;274.50;;;128.60;;
14066;SDS011;7108;42.684;23.350;2022-08-21T14:31:42;285.20;;;129.00;;
14066;SDS011;7108;42.684;23.350;2022-08-21T14:34:14;285.87;;;130.20;;
14066;SDS011;7108;42.684;23.350;2022-08-21T14:36:41;280.70;;;125.27;;
14066;SDS011;7108;42.684;23.350;2022-08-21T14:39:08;263.37;;;121.83;;
14066;SDS011;7108;42.684;23.350;2022-08-21T14:41:33;267.83;;;131.73;;
14066;SDS011;7108;42.684;23.350;2022-08-21T14:43:59;260.23;;;125.37;;
14066;SDS011;7108;42.684;23.350;2022-08-21T14:46:25;291.23;;;129.50;;
14066;SDS011;7108;42.684;23.350;2022-08-21T14:48:54;272.50;;;126.93;;
14066;SDS011;7108;42.684;23.350;2022-08-21T14:51:19;289.80;;;131.40;;
14066;SDS011;7108;42.684;23.350;2022-08-21T14:53:45;271.33;;;129.83;;
14066;SDS011;7108;42.684;23.350;2022-08-21T14:56:12;294.70;;;128.30;;
14066;SDS011;7108;42.684;23.350;2022-08-21T14:58:43;252.17;;;126.07;;
14066;SDS011;7108;42.684;23.350;2022-08-21T15:01:11;284.23;;;126.27;;
14066;SDS011;7108;42.684;23.350;2022-08-21T15:03:38;261.60;;;131.03;;
14066;SDS011;7108;42.684;23.350;2022-08-21T15:06:04;273.73;;;126.97;;
14066;SDS011;7108;42.684;23.350;2022-08-21T15:08:31;261.83;;;124.67;;
14066;SDS011;7108;42.684;23.350;2022-08-21T15:10:57;293.23;;;128.50;;
14066;SDS011;7108;42.684;23.350;2022-08-21T15:13:23;267.13;;;130.73;;
14066;SDS011;7108;42.684;23.350;2022-08-21T15:15:50;294.60;;;133.93;;
14066;SDS011;7108;42.684;23.350;2022-08-21T15:18:18;291.03;;;128.67;;
14066;SDS011;7108;42.684;23.350;2022-08-21T15:20:47;294.47;;;131.20;;
14066;SDS011;7108;42.684;23.350;2022-08-21T15:23:13;265.77;;;124.33;;
14066;SDS011;7108;42.684;23.350;2022-08-21T15:25:41;265.27;;;127.07;;
14066;SDS011;7108;42.684;23.350;2022-08-21T15:28:08;278.13;;;125.57;;
14066;SDS011;7108;42.684;23.350;2022-08-21T15:30:34;257.10;;;121.93;;
14066;SDS011;7108;42.684;23.350;2022-08-21T15:33:00;282.17;;;129.57;;
14066;SDS011;7108;42.684;23.350;2022-08-21T15:35:25;264.33;;;128.03;;
14066;SDS011;7108;42.684;23.350;2022-08-21T15:37:51;291.23;;;128.47;;
14066;SDS011;7108;42.684;23.350;2022-08-21T15:40:16;287.50;;;124.60;;
14066;SDS011;7108;42.684;23.350;2022-08-21T15:42:42;266.93;;;125.17;;
14066;SDS011;7108;42.684;23.350;2022-08-21T15:45:09;300.97;;;129.30;;
14066;SDS011;7108;42.684;23.350;2022-08-21T15:47:36;277.17;;;124.57;;
14066;SDS011;7108;42.684;23.350;2022-08-21T15:50:04;292.20;;;126.20;;
14066;SDS011;7108;42.684;23.350;2022-08-21T15:52:33;286.13;;;125.37;;
14066;SDS011;7108;42.684;23.350;2022-08-21T15:54:59;293.13;;;126.10;;